<?xml version="1.0" encoding="UTF-8" standalone="no" ?>
<gpx xmlns="http://www.topografix.com/GPX/1/1" xmlns:xsi="http://www.w3.org/2001/XMLSchema-instance" xsi:schemaLocation="http://www.topografix.com/GPX/1/1 http://www.topografix.com/GPX/1/1/gpx.xsd" version="1.1" creator="VisuGPX - https://www.visugpx.com">
  <metadata>
    <name>2013 08 25 - VTT Corronsac</name>
    <desc><![CDATA[2013 08 25 - VTT Corronsac]]></desc>
  </metadata>
  <trk>
    <name><![CDATA[Tracé actuel: 25 AOU 2013 15:47]]></name>
    <desc><![CDATA[Total: 24.7km]]></desc>
    <trkseg>
      <trkpt lat="43.4734" lon="1.49508">
        <ele>237</ele>
        <time>2013-08-25T13:47:22Z</time>
      </trkpt>
      <trkpt lat="43.47339" lon="1.49507">
        <ele>237</ele>
        <time>2013-08-25T13:47:35Z</time>
      </trkpt>
      <trkpt lat="43.4734" lon="1.49506">
        <ele>237</ele>
        <time>2013-08-25T13:47:47Z</time>
      </trkpt>
      <trkpt lat="43.47341" lon="1.49503">
        <ele>237</ele>
        <time>2013-08-25T13:47:49Z</time>
      </trkpt>
      <trkpt lat="43.47342" lon="1.49501">
        <ele>237</ele>
        <time>2013-08-25T13:47:50Z</time>
      </trkpt>
      <trkpt lat="43.47342" lon="1.49499">
        <ele>237</ele>
        <time>2013-08-25T13:47:51Z</time>
      </trkpt>
      <trkpt lat="43.47338" lon="1.49487">
        <ele>236</ele>
        <time>2013-08-25T13:47:57Z</time>
      </trkpt>
      <trkpt lat="43.47331" lon="1.49467">
        <ele>231</ele>
        <time>2013-08-25T13:48:04Z</time>
      </trkpt>
      <trkpt lat="43.47326" lon="1.49441">
        <ele>230</ele>
        <time>2013-08-25T13:48:10Z</time>
      </trkpt>
      <trkpt lat="43.47326" lon="1.49435">
        <ele>230</ele>
        <time>2013-08-25T13:48:11Z</time>
      </trkpt>
      <trkpt lat="43.47326" lon="1.49429">
        <ele>231</ele>
        <time>2013-08-25T13:48:12Z</time>
      </trkpt>
      <trkpt lat="43.47327" lon="1.49422">
        <ele>232</ele>
        <time>2013-08-25T13:48:13Z</time>
      </trkpt>
      <trkpt lat="43.47338" lon="1.49383">
        <ele>231</ele>
        <time>2013-08-25T13:48:20Z</time>
      </trkpt>
      <trkpt lat="43.47342" lon="1.49371">
        <ele>230</ele>
        <time>2013-08-25T13:48:22Z</time>
      </trkpt>
      <trkpt lat="43.47343" lon="1.49341">
        <ele>228</ele>
        <time>2013-08-25T13:48:27Z</time>
      </trkpt>
      <trkpt lat="43.47331" lon="1.49288">
        <ele>218</ele>
        <time>2013-08-25T13:48:35Z</time>
      </trkpt>
      <trkpt lat="43.47306" lon="1.49233">
        <ele>212</ele>
        <time>2013-08-25T13:48:43Z</time>
      </trkpt>
      <trkpt lat="43.47287" lon="1.49194">
        <ele>210</ele>
        <time>2013-08-25T13:48:49Z</time>
      </trkpt>
      <trkpt lat="43.47261" lon="1.4914">
        <ele>207</ele>
        <time>2013-08-25T13:48:57Z</time>
      </trkpt>
      <trkpt lat="43.47249" lon="1.49115">
        <ele>205</ele>
        <time>2013-08-25T13:49:02Z</time>
      </trkpt>
      <trkpt lat="43.47246" lon="1.49112">
        <ele>205</ele>
        <time>2013-08-25T13:49:04Z</time>
      </trkpt>
      <trkpt lat="43.47246" lon="1.49111">
        <ele>205</ele>
        <time>2013-08-25T13:49:09Z</time>
      </trkpt>
      <trkpt lat="43.47245" lon="1.49111">
        <ele>205</ele>
        <time>2013-08-25T13:49:26Z</time>
      </trkpt>
      <trkpt lat="43.47245" lon="1.4911">
        <ele>205</ele>
        <time>2013-08-25T13:49:41Z</time>
      </trkpt>
      <trkpt lat="43.47245" lon="1.4911">
        <ele>205</ele>
        <time>2013-08-25T13:49:58Z</time>
      </trkpt>
      <trkpt lat="43.47246" lon="1.4911">
        <ele>205</ele>
        <time>2013-08-25T13:50:10Z</time>
      </trkpt>
      <trkpt lat="43.47246" lon="1.4911">
        <ele>205</ele>
        <time>2013-08-25T13:50:26Z</time>
      </trkpt>
      <trkpt lat="43.47246" lon="1.4911">
        <ele>205</ele>
        <time>2013-08-25T13:50:39Z</time>
      </trkpt>
      <trkpt lat="43.47242" lon="1.49108">
        <ele>205</ele>
        <time>2013-08-25T13:50:44Z</time>
      </trkpt>
      <trkpt lat="43.47241" lon="1.49107">
        <ele>205</ele>
        <time>2013-08-25T13:50:45Z</time>
      </trkpt>
      <trkpt lat="43.47239" lon="1.49106">
        <ele>205</ele>
        <time>2013-08-25T13:50:47Z</time>
      </trkpt>
      <trkpt lat="43.47236" lon="1.49104">
        <ele>205</ele>
        <time>2013-08-25T13:50:50Z</time>
      </trkpt>
      <trkpt lat="43.47235" lon="1.49102">
        <ele>205</ele>
        <time>2013-08-25T13:50:51Z</time>
      </trkpt>
      <trkpt lat="43.47234" lon="1.491">
        <ele>205</ele>
        <time>2013-08-25T13:50:52Z</time>
      </trkpt>
      <trkpt lat="43.47232" lon="1.4908">
        <ele>205</ele>
        <time>2013-08-25T13:50:57Z</time>
      </trkpt>
      <trkpt lat="43.47234" lon="1.49051">
        <ele>205</ele>
        <time>2013-08-25T13:51:03Z</time>
      </trkpt>
      <trkpt lat="43.47238" lon="1.49004">
        <ele>203</ele>
        <time>2013-08-25T13:51:12Z</time>
      </trkpt>
      <trkpt lat="43.47239" lon="1.48952">
        <ele>204</ele>
        <time>2013-08-25T13:51:21Z</time>
      </trkpt>
      <trkpt lat="43.47239" lon="1.48884">
        <ele>204</ele>
        <time>2013-08-25T13:51:32Z</time>
      </trkpt>
      <trkpt lat="43.4724" lon="1.48839">
        <ele>203</ele>
        <time>2013-08-25T13:51:39Z</time>
      </trkpt>
      <trkpt lat="43.47241" lon="1.48801">
        <ele>202</ele>
        <time>2013-08-25T13:51:45Z</time>
      </trkpt>
      <trkpt lat="43.47241" lon="1.48794">
        <ele>202</ele>
        <time>2013-08-25T13:51:46Z</time>
      </trkpt>
      <trkpt lat="43.47248" lon="1.48742">
        <ele>199</ele>
        <time>2013-08-25T13:51:54Z</time>
      </trkpt>
      <trkpt lat="43.47253" lon="1.48704">
        <ele>200</ele>
        <time>2013-08-25T13:52:00Z</time>
      </trkpt>
      <trkpt lat="43.47255" lon="1.48699">
        <ele>200</ele>
        <time>2013-08-25T13:52:01Z</time>
      </trkpt>
      <trkpt lat="43.47256" lon="1.48693">
        <ele>200</ele>
        <time>2013-08-25T13:52:02Z</time>
      </trkpt>
      <trkpt lat="43.47257" lon="1.48686">
        <ele>200</ele>
        <time>2013-08-25T13:52:03Z</time>
      </trkpt>
      <trkpt lat="43.47258" lon="1.4868">
        <ele>199</ele>
        <time>2013-08-25T13:52:04Z</time>
      </trkpt>
      <trkpt lat="43.4726" lon="1.48674">
        <ele>199</ele>
        <time>2013-08-25T13:52:05Z</time>
      </trkpt>
      <trkpt lat="43.4727" lon="1.48617">
        <ele>198</ele>
        <time>2013-08-25T13:52:14Z</time>
      </trkpt>
      <trkpt lat="43.47285" lon="1.48558">
        <ele>198</ele>
        <time>2013-08-25T13:52:23Z</time>
      </trkpt>
      <trkpt lat="43.47302" lon="1.485">
        <ele>198</ele>
        <time>2013-08-25T13:52:32Z</time>
      </trkpt>
      <trkpt lat="43.47309" lon="1.48475">
        <ele>198</ele>
        <time>2013-08-25T13:52:36Z</time>
      </trkpt>
      <trkpt lat="43.47324" lon="1.48414">
        <ele>196</ele>
        <time>2013-08-25T13:52:45Z</time>
      </trkpt>
      <trkpt lat="43.47328" lon="1.48386">
        <ele>197</ele>
        <time>2013-08-25T13:52:49Z</time>
      </trkpt>
      <trkpt lat="43.47333" lon="1.48322">
        <ele>197</ele>
        <time>2013-08-25T13:52:58Z</time>
      </trkpt>
      <trkpt lat="43.47335" lon="1.48265">
        <ele>198</ele>
        <time>2013-08-25T13:53:06Z</time>
      </trkpt>
      <trkpt lat="43.47338" lon="1.48208">
        <ele>198</ele>
        <time>2013-08-25T13:53:14Z</time>
      </trkpt>
      <trkpt lat="43.47345" lon="1.48149">
        <ele>197</ele>
        <time>2013-08-25T13:53:23Z</time>
      </trkpt>
      <trkpt lat="43.47351" lon="1.48109">
        <ele>197</ele>
        <time>2013-08-25T13:53:29Z</time>
      </trkpt>
      <trkpt lat="43.47358" lon="1.48066">
        <ele>196</ele>
        <time>2013-08-25T13:53:36Z</time>
      </trkpt>
      <trkpt lat="43.47359" lon="1.4806">
        <ele>195</ele>
        <time>2013-08-25T13:53:37Z</time>
      </trkpt>
      <trkpt lat="43.47359" lon="1.48053">
        <ele>195</ele>
        <time>2013-08-25T13:53:38Z</time>
      </trkpt>
      <trkpt lat="43.47358" lon="1.48047">
        <ele>195</ele>
        <time>2013-08-25T13:53:39Z</time>
      </trkpt>
      <trkpt lat="43.47356" lon="1.48041">
        <ele>195</ele>
        <time>2013-08-25T13:53:40Z</time>
      </trkpt>
      <trkpt lat="43.47352" lon="1.48037">
        <ele>195</ele>
        <time>2013-08-25T13:53:41Z</time>
      </trkpt>
      <trkpt lat="43.47349" lon="1.48034">
        <ele>195</ele>
        <time>2013-08-25T13:53:42Z</time>
      </trkpt>
      <trkpt lat="43.47345" lon="1.48031">
        <ele>195</ele>
        <time>2013-08-25T13:53:43Z</time>
      </trkpt>
      <trkpt lat="43.47328" lon="1.48015">
        <ele>195</ele>
        <time>2013-08-25T13:53:49Z</time>
      </trkpt>
      <trkpt lat="43.47311" lon="1.48002">
        <ele>195</ele>
        <time>2013-08-25T13:53:56Z</time>
      </trkpt>
      <trkpt lat="43.47308" lon="1.48">
        <ele>194</ele>
        <time>2013-08-25T13:53:57Z</time>
      </trkpt>
      <trkpt lat="43.47304" lon="1.47996">
        <ele>194</ele>
        <time>2013-08-25T13:53:58Z</time>
      </trkpt>
      <trkpt lat="43.47296" lon="1.47989">
        <ele>194</ele>
        <time>2013-08-25T13:54:00Z</time>
      </trkpt>
      <trkpt lat="43.47275" lon="1.47973">
        <ele>195</ele>
        <time>2013-08-25T13:54:04Z</time>
      </trkpt>
      <trkpt lat="43.47247" lon="1.47947">
        <ele>198</ele>
        <time>2013-08-25T13:54:10Z</time>
      </trkpt>
      <trkpt lat="43.47229" lon="1.47933">
        <ele>198</ele>
        <time>2013-08-25T13:54:17Z</time>
      </trkpt>
      <trkpt lat="43.47213" lon="1.47924">
        <ele>199</ele>
        <time>2013-08-25T13:54:25Z</time>
      </trkpt>
      <trkpt lat="43.47202" lon="1.47918">
        <ele>199</ele>
        <time>2013-08-25T13:54:32Z</time>
      </trkpt>
      <trkpt lat="43.47188" lon="1.47913">
        <ele>202</ele>
        <time>2013-08-25T13:54:40Z</time>
      </trkpt>
      <trkpt lat="43.47172" lon="1.47905">
        <ele>203</ele>
        <time>2013-08-25T13:54:48Z</time>
      </trkpt>
      <trkpt lat="43.47158" lon="1.47892">
        <ele>207</ele>
        <time>2013-08-25T13:54:57Z</time>
      </trkpt>
      <trkpt lat="43.47142" lon="1.47878">
        <ele>209</ele>
        <time>2013-08-25T13:55:06Z</time>
      </trkpt>
      <trkpt lat="43.4714" lon="1.47877">
        <ele>209</ele>
        <time>2013-08-25T13:55:07Z</time>
      </trkpt>
      <trkpt lat="43.47122" lon="1.47861">
        <ele>211</ele>
        <time>2013-08-25T13:55:16Z</time>
      </trkpt>
      <trkpt lat="43.47105" lon="1.47849">
        <ele>213</ele>
        <time>2013-08-25T13:55:24Z</time>
      </trkpt>
      <trkpt lat="43.47089" lon="1.47839">
        <ele>217</ele>
        <time>2013-08-25T13:55:32Z</time>
      </trkpt>
      <trkpt lat="43.47071" lon="1.4783">
        <ele>221</ele>
        <time>2013-08-25T13:55:41Z</time>
      </trkpt>
      <trkpt lat="43.47069" lon="1.47831">
        <ele>222</ele>
        <time>2013-08-25T13:55:42Z</time>
      </trkpt>
      <trkpt lat="43.47067" lon="1.47831">
        <ele>222</ele>
        <time>2013-08-25T13:55:43Z</time>
      </trkpt>
      <trkpt lat="43.47049" lon="1.47833">
        <ele>219</ele>
        <time>2013-08-25T13:55:51Z</time>
      </trkpt>
      <trkpt lat="43.47032" lon="1.47839">
        <ele>220</ele>
        <time>2013-08-25T13:56:00Z</time>
      </trkpt>
      <trkpt lat="43.47018" lon="1.4784">
        <ele>221</ele>
        <time>2013-08-25T13:56:07Z</time>
      </trkpt>
      <trkpt lat="43.47005" lon="1.47836">
        <ele>223</ele>
        <time>2013-08-25T13:56:14Z</time>
      </trkpt>
      <trkpt lat="43.46995" lon="1.47825">
        <ele>227</ele>
        <time>2013-08-25T13:56:22Z</time>
      </trkpt>
      <trkpt lat="43.46986" lon="1.47811">
        <ele>229</ele>
        <time>2013-08-25T13:56:30Z</time>
      </trkpt>
      <trkpt lat="43.46974" lon="1.47799">
        <ele>231</ele>
        <time>2013-08-25T13:56:37Z</time>
      </trkpt>
      <trkpt lat="43.46959" lon="1.47783">
        <ele>232</ele>
        <time>2013-08-25T13:56:46Z</time>
      </trkpt>
      <trkpt lat="43.46949" lon="1.47768">
        <ele>233</ele>
        <time>2013-08-25T13:56:55Z</time>
      </trkpt>
      <trkpt lat="43.46937" lon="1.47756">
        <ele>235</ele>
        <time>2013-08-25T13:57:04Z</time>
      </trkpt>
      <trkpt lat="43.46926" lon="1.47749">
        <ele>239</ele>
        <time>2013-08-25T13:57:11Z</time>
      </trkpt>
      <trkpt lat="43.46916" lon="1.4774">
        <ele>240</ele>
        <time>2013-08-25T13:57:19Z</time>
      </trkpt>
      <trkpt lat="43.4691" lon="1.47738">
        <ele>240</ele>
        <time>2013-08-25T13:57:25Z</time>
      </trkpt>
      <trkpt lat="43.46908" lon="1.47737">
        <ele>241</ele>
        <time>2013-08-25T13:57:38Z</time>
      </trkpt>
      <trkpt lat="43.46907" lon="1.47738">
        <ele>241</ele>
        <time>2013-08-25T13:57:42Z</time>
      </trkpt>
      <trkpt lat="43.46906" lon="1.47739">
        <ele>241</ele>
        <time>2013-08-25T13:57:43Z</time>
      </trkpt>
      <trkpt lat="43.46904" lon="1.4774">
        <ele>241</ele>
        <time>2013-08-25T13:57:44Z</time>
      </trkpt>
      <trkpt lat="43.46899" lon="1.47744">
        <ele>241</ele>
        <time>2013-08-25T13:57:47Z</time>
      </trkpt>
      <trkpt lat="43.46888" lon="1.47758">
        <ele>240</ele>
        <time>2013-08-25T13:57:55Z</time>
      </trkpt>
      <trkpt lat="43.46869" lon="1.47777">
        <ele>240</ele>
        <time>2013-08-25T13:58:05Z</time>
      </trkpt>
      <trkpt lat="43.46852" lon="1.47795">
        <ele>240</ele>
        <time>2013-08-25T13:58:15Z</time>
      </trkpt>
      <trkpt lat="43.46849" lon="1.47797">
        <ele>240</ele>
        <time>2013-08-25T13:58:21Z</time>
      </trkpt>
      <trkpt lat="43.46854" lon="1.47793">
        <ele>240</ele>
        <time>2013-08-25T13:58:25Z</time>
      </trkpt>
      <trkpt lat="43.46874" lon="1.47773">
        <ele>240</ele>
        <time>2013-08-25T13:58:34Z</time>
      </trkpt>
      <trkpt lat="43.46902" lon="1.47745">
        <ele>241</ele>
        <time>2013-08-25T13:58:44Z</time>
      </trkpt>
      <trkpt lat="43.46909" lon="1.47738">
        <ele>241</ele>
        <time>2013-08-25T13:58:49Z</time>
      </trkpt>
      <trkpt lat="43.46909" lon="1.47737">
        <ele>241</ele>
        <time>2013-08-25T13:58:57Z</time>
      </trkpt>
      <trkpt lat="43.46909" lon="1.47737">
        <ele>241</ele>
        <time>2013-08-25T13:59:09Z</time>
      </trkpt>
      <trkpt lat="43.46909" lon="1.47736">
        <ele>241</ele>
        <time>2013-08-25T13:59:24Z</time>
      </trkpt>
      <trkpt lat="43.46909" lon="1.47736">
        <ele>241</ele>
        <time>2013-08-25T13:59:36Z</time>
      </trkpt>
      <trkpt lat="43.46908" lon="1.47736">
        <ele>241</ele>
        <time>2013-08-25T13:59:51Z</time>
      </trkpt>
      <trkpt lat="43.46908" lon="1.47735">
        <ele>241</ele>
        <time>2013-08-25T14:00:08Z</time>
      </trkpt>
      <trkpt lat="43.46908" lon="1.47735">
        <ele>241</ele>
        <time>2013-08-25T14:00:19Z</time>
      </trkpt>
      <trkpt lat="43.46908" lon="1.47735">
        <ele>241</ele>
        <time>2013-08-25T14:00:32Z</time>
      </trkpt>
      <trkpt lat="43.46908" lon="1.47734">
        <ele>241</ele>
        <time>2013-08-25T14:00:42Z</time>
      </trkpt>
      <trkpt lat="43.46909" lon="1.47736">
        <ele>241</ele>
        <time>2013-08-25T14:00:44Z</time>
      </trkpt>
      <trkpt lat="43.46908" lon="1.47739">
        <ele>241</ele>
        <time>2013-08-25T14:00:49Z</time>
      </trkpt>
      <trkpt lat="43.46907" lon="1.47738">
        <ele>241</ele>
        <time>2013-08-25T14:00:50Z</time>
      </trkpt>
      <trkpt lat="43.46905" lon="1.47736">
        <ele>241</ele>
        <time>2013-08-25T14:00:53Z</time>
      </trkpt>
      <trkpt lat="43.46904" lon="1.47731">
        <ele>241</ele>
        <time>2013-08-25T14:00:56Z</time>
      </trkpt>
      <trkpt lat="43.46895" lon="1.47723">
        <ele>241</ele>
        <time>2013-08-25T14:01:03Z</time>
      </trkpt>
      <trkpt lat="43.46883" lon="1.47714">
        <ele>241</ele>
        <time>2013-08-25T14:01:11Z</time>
      </trkpt>
      <trkpt lat="43.46868" lon="1.47699">
        <ele>241</ele>
        <time>2013-08-25T14:01:19Z</time>
      </trkpt>
      <trkpt lat="43.46845" lon="1.47674">
        <ele>240</ele>
        <time>2013-08-25T14:01:25Z</time>
      </trkpt>
      <trkpt lat="43.46805" lon="1.47633">
        <ele>240</ele>
        <time>2013-08-25T14:01:33Z</time>
      </trkpt>
      <trkpt lat="43.46785" lon="1.4761">
        <ele>240</ele>
        <time>2013-08-25T14:01:39Z</time>
      </trkpt>
      <trkpt lat="43.46769" lon="1.47592">
        <ele>241</ele>
        <time>2013-08-25T14:01:47Z</time>
      </trkpt>
      <trkpt lat="43.46758" lon="1.47576">
        <ele>241</ele>
        <time>2013-08-25T14:01:54Z</time>
      </trkpt>
      <trkpt lat="43.46753" lon="1.47567">
        <ele>241</ele>
        <time>2013-08-25T14:02:00Z</time>
      </trkpt>
      <trkpt lat="43.46744" lon="1.47554">
        <ele>245</ele>
        <time>2013-08-25T14:02:08Z</time>
      </trkpt>
      <trkpt lat="43.46737" lon="1.47546">
        <ele>245</ele>
        <time>2013-08-25T14:02:14Z</time>
      </trkpt>
      <trkpt lat="43.4673" lon="1.47536">
        <ele>246</ele>
        <time>2013-08-25T14:02:21Z</time>
      </trkpt>
      <trkpt lat="43.46727" lon="1.47529">
        <ele>246</ele>
        <time>2013-08-25T14:02:27Z</time>
      </trkpt>
      <trkpt lat="43.46718" lon="1.47515">
        <ele>246</ele>
        <time>2013-08-25T14:02:34Z</time>
      </trkpt>
      <trkpt lat="43.46706" lon="1.47499">
        <ele>248</ele>
        <time>2013-08-25T14:02:42Z</time>
      </trkpt>
      <trkpt lat="43.46696" lon="1.47487">
        <ele>249</ele>
        <time>2013-08-25T14:02:50Z</time>
      </trkpt>
      <trkpt lat="43.46684" lon="1.47474">
        <ele>250</ele>
        <time>2013-08-25T14:02:59Z</time>
      </trkpt>
      <trkpt lat="43.46674" lon="1.47462">
        <ele>250</ele>
        <time>2013-08-25T14:03:08Z</time>
      </trkpt>
      <trkpt lat="43.4666" lon="1.47445">
        <ele>253</ele>
        <time>2013-08-25T14:03:19Z</time>
      </trkpt>
      <trkpt lat="43.46647" lon="1.47429">
        <ele>253</ele>
        <time>2013-08-25T14:03:30Z</time>
      </trkpt>
      <trkpt lat="43.46639" lon="1.47418">
        <ele>254</ele>
        <time>2013-08-25T14:03:38Z</time>
      </trkpt>
      <trkpt lat="43.46639" lon="1.47418">
        <ele>254</ele>
        <time>2013-08-25T14:03:48Z</time>
      </trkpt>
      <trkpt lat="43.46639" lon="1.47418">
        <ele>254</ele>
        <time>2013-08-25T14:04:00Z</time>
      </trkpt>
      <trkpt lat="43.46638" lon="1.47415">
        <ele>255</ele>
        <time>2013-08-25T14:04:07Z</time>
      </trkpt>
      <trkpt lat="43.4663" lon="1.47403">
        <ele>255</ele>
        <time>2013-08-25T14:04:14Z</time>
      </trkpt>
      <trkpt lat="43.46622" lon="1.47388">
        <ele>256</ele>
        <time>2013-08-25T14:04:21Z</time>
      </trkpt>
      <trkpt lat="43.46612" lon="1.47372">
        <ele>256</ele>
        <time>2013-08-25T14:04:28Z</time>
      </trkpt>
      <trkpt lat="43.46601" lon="1.47358">
        <ele>257</ele>
        <time>2013-08-25T14:04:37Z</time>
      </trkpt>
      <trkpt lat="43.46593" lon="1.47345">
        <ele>259</ele>
        <time>2013-08-25T14:04:46Z</time>
      </trkpt>
      <trkpt lat="43.46584" lon="1.47332">
        <ele>261</ele>
        <time>2013-08-25T14:04:55Z</time>
      </trkpt>
      <trkpt lat="43.46583" lon="1.4733">
        <ele>261</ele>
        <time>2013-08-25T14:04:56Z</time>
      </trkpt>
      <trkpt lat="43.46575" lon="1.47321">
        <ele>262</ele>
        <time>2013-08-25T14:05:03Z</time>
      </trkpt>
      <trkpt lat="43.46565" lon="1.47308">
        <ele>263</ele>
        <time>2013-08-25T14:05:12Z</time>
      </trkpt>
      <trkpt lat="43.46551" lon="1.47294">
        <ele>264</ele>
        <time>2013-08-25T14:05:21Z</time>
      </trkpt>
      <trkpt lat="43.46535" lon="1.4728">
        <ele>264</ele>
        <time>2013-08-25T14:05:32Z</time>
      </trkpt>
      <trkpt lat="43.4652" lon="1.4726">
        <ele>265</ele>
        <time>2013-08-25T14:05:39Z</time>
      </trkpt>
      <trkpt lat="43.46493" lon="1.47226">
        <ele>264</ele>
        <time>2013-08-25T14:05:46Z</time>
      </trkpt>
      <trkpt lat="43.46471" lon="1.4718">
        <ele>263</ele>
        <time>2013-08-25T14:05:53Z</time>
      </trkpt>
      <trkpt lat="43.46464" lon="1.47164">
        <ele>263</ele>
        <time>2013-08-25T14:05:56Z</time>
      </trkpt>
      <trkpt lat="43.46452" lon="1.47134">
        <ele>262</ele>
        <time>2013-08-25T14:06:03Z</time>
      </trkpt>
      <trkpt lat="43.46438" lon="1.47103">
        <ele>262</ele>
        <time>2013-08-25T14:06:12Z</time>
      </trkpt>
      <trkpt lat="43.46422" lon="1.47072">
        <ele>261</ele>
        <time>2013-08-25T14:06:22Z</time>
      </trkpt>
      <trkpt lat="43.46415" lon="1.47058">
        <ele>261</ele>
        <time>2013-08-25T14:06:29Z</time>
      </trkpt>
      <trkpt lat="43.46413" lon="1.47057">
        <ele>261</ele>
        <time>2013-08-25T14:06:30Z</time>
      </trkpt>
      <trkpt lat="43.46412" lon="1.47057">
        <ele>261</ele>
        <time>2013-08-25T14:06:31Z</time>
      </trkpt>
      <trkpt lat="43.4641" lon="1.47058">
        <ele>261</ele>
        <time>2013-08-25T14:06:32Z</time>
      </trkpt>
      <trkpt lat="43.46409" lon="1.47058">
        <ele>261</ele>
        <time>2013-08-25T14:06:33Z</time>
      </trkpt>
      <trkpt lat="43.46408" lon="1.47058">
        <ele>261</ele>
        <time>2013-08-25T14:06:34Z</time>
      </trkpt>
      <trkpt lat="43.46407" lon="1.47057">
        <ele>261</ele>
        <time>2013-08-25T14:06:35Z</time>
      </trkpt>
      <trkpt lat="43.46394" lon="1.47052">
        <ele>261</ele>
        <time>2013-08-25T14:06:43Z</time>
      </trkpt>
      <trkpt lat="43.4638" lon="1.47042">
        <ele>261</ele>
        <time>2013-08-25T14:06:51Z</time>
      </trkpt>
      <trkpt lat="43.46368" lon="1.47035">
        <ele>261</ele>
        <time>2013-08-25T14:06:58Z</time>
      </trkpt>
      <trkpt lat="43.46353" lon="1.47025">
        <ele>261</ele>
        <time>2013-08-25T14:07:06Z</time>
      </trkpt>
      <trkpt lat="43.46335" lon="1.47013">
        <ele>262</ele>
        <time>2013-08-25T14:07:15Z</time>
      </trkpt>
      <trkpt lat="43.46325" lon="1.47006">
        <ele>263</ele>
        <time>2013-08-25T14:07:21Z</time>
      </trkpt>
    </trkseg>
  </trk>
</gpx>